sensor_id;sensor_type;location;lat;lon;timestamp;pressure;altitude;pressure_sealevel;temperature;humidity
23321;BME280;33376;51.306;4.752;2023-05-22T00:00:06;100312.25;;;14.08;100.00
23321;BME280;33376;51.306;4.752;2023-05-22T00:02:32;100259.53;;;14.01;100.00
23321;BME280;33376;51.306;4.752;2023-05-22T00:04:57;100187.78;;;13.98;100.00
23321;BME280;33376;51.306;4.752;2023-05-22T00:07:24;100129.41;;;13.95;100.00
23321;BME280;33376;51.306;4.752;2023-05-22T00:09:51;100045.56;;;13.99;100.00
23321;BME280;33376;51.306;4.752;2023-05-22T00:12:17;99987.06;;;13.97;100.00
23321;BME280;33376;51.306;4.752;2023-05-22T00:14:43;99914.63;;;13.92;100.00
23321;BME280;33376;51.306;4.752;2023-05-22T00:17:08;99868.34;;;13.93;100.00
23321;BME280;33376;51.306;4.752;2023-05-22T00:19:34;99800.44;;;13.88;100.00
23321;BME280;33376;51.306;4.752;2023-05-22T00:21:59;99751.19;;;13.82;100.00
23321;BME280;33376;51.306;4.752;2023-05-22T00:24:25;99698.69;;;13.73;100.00
23321;BME280;33376;51.306;4.752;2023-05-22T00:26:50;99631.81;;;13.76;100.00
23321;BME280;33376;51.306;4.752;2023-05-22T00:29:16;99588.94;;;13.79;100.00
23321;BME280;33376;51.306;4.752;2023-05-22T00:31:41;99545.88;;;13.74;100.00
23321;BME280;33376;51.306;4.752;2023-05-22T00:34:06;99474.22;;;13.71;100.00
23321;BME280;33376;51.306;4.752;2023-05-22T00:36:32;99436.78;;;13.63;100.00
23321;BME280;33376;51.306;4.752;2023-05-22T00:38:57;99397.25;;;13.68;100.00
23321;BME280;33376;51.306;4.752;2023-05-22T00:41:22;99081.88;;;13.61;100.00
23321;BME280;33376;51.306;4.752;2023-05-22T00:43:47;96472.88;;;13.58;100.00
23321;BME280;33376;51.306;4.752;2023-05-22T00:46:15;96690.84;;;13.53;100.00
23321;BME280;33376;51.306;4.752;2023-05-22T00:48:45;96687.78;;;13.56;100.00
23321;BME280;33376;51.306;4.752;2023-05-22T00:51:10;96805.66;;;13.50;100.00
23321;BME280;33376;51.306;4.752;2023-05-22T00:53:35;96507.06;;;13.41;100.00
23321;BME280;33376;51.306;4.752;2023-05-22T00:56:01;96638.44;;;13.40;100.00
23321;BME280;33376;51.306;4.752;2023-05-22T00:58:27;96674.03;;;13.39;100.00
23321;BME280;33376;51.306;4.752;2023-05-22T01:00:53;96583.16;;;13.36;100.00
23321;BME280;33376;51.306;4.752;2023-05-22T01:03:19;96625.72;;;13.36;100.00
23321;BME280;33376;51.306;4.752;2023-05-22T01:05:50;96586.25;;;13.33;100.00
23321;BME280;33376;51.306;4.752;2023-05-22T01:08:15;96560.06;;;13.30;100.00
23321;BME280;33376;51.306;4.752;2023-05-22T01:10:40;96497.47;;;13.27;100.00
23321;BME280;33376;51.306;4.752;2023-05-22T01:18:09;96213.56;;;13.23;100.00
23321;BME280;33376;51.306;4.752;2023-05-22T01:20:43;96222.34;;;13.23;100.00
23321;BME280;33376;51.306;4.752;2023-05-22T01:31:10;96239.19;;;13.10;100.00
23321;BME280;33376;51.306;4.752;2023-05-22T01:36:08;96312.59;;;13.11;100.00
23321;BME280;33376;51.306;4.752;2023-05-22T01:38:35;96334.47;;;13.07;100.00
23321;BME280;33376;51.306;4.752;2023-05-22T01:41:01;96362.31;;;13.04;100.00
23321;BME280;33376;51.306;4.752;2023-05-22T01:43:26;96393.19;;;13.05;100.00
23321;BME280;33376;51.306;4.752;2023-05-22T01:45:51;96430.59;;;13.04;100.00
23321;BME280;33376;51.306;4.752;2023-05-22T01:48:17;96451.25;;;13.02;100.00
23321;BME280;33376;51.306;4.752;2023-05-22T01:50:42;96475.56;;;12.99;100.00
23321;BME280;33376;51.306;4.752;2023-05-22T02:00:32;96478.81;;;12.94;100.00
23321;BME280;33376;51.306;4.752;2023-05-22T02:02:59;96485.81;;;12.95;100.00
23321;BME280;33376;51.306;4.752;2023-05-22T02:05:28;96508.06;;;12.88;100.00
23321;BME280;33376;51.306;4.752;2023-05-22T02:07:57;96521.16;;;12.89;100.00
23321;BME280;33376;51.306;4.752;2023-05-22T02:10:24;96525.06;;;12.93;100.00
23321;BME280;33376;51.306;4.752;2023-05-22T02:12:52;96537.50;;;12.93;100.00
23321;BME280;33376;51.306;4.752;2023-05-22T02:15:17;96565.53;;;12.89;100.00
23321;BME280;33376;51.306;4.752;2023-05-22T02:17:43;96566.94;;;12.91;100.00
23321;BME280;33376;51.306;4.752;2023-05-22T02:20:09;96561.63;;;12.91;100.00
23321;BME280;33376;51.306;4.752;2023-05-22T02:22:42;96699.06;;;12.97;100.00
23321;BME280;33376;51.306;4.752;2023-05-22T02:25:09;96723.34;;;12.88;100.00
23321;BME280;33376;51.306;4.752;2023-05-22T02:27:38;96730.53;;;12.87;100.00
23321;BME280;33376;51.306;4.752;2023-05-22T02:30:04;96739.31;;;12.94;100.00
23321;BME280;33376;51.306;4.752;2023-05-22T02:32:29;96741.19;;;12.94;100.00
23321;BME280;33376;51.306;4.752;2023-05-22T02:34:55;96766.75;;;12.95;100.00
23321;BME280;33376;51.306;4.752;2023-05-22T02:37:20;96779.44;;;12.99;100.00
23321;BME280;33376;51.306;4.752;2023-05-22T02:39:46;96798.00;;;12.93;100.00
23321;BME280;33376;51.306;4.752;2023-05-22T02:42:11;96818.44;;;12.92;100.00
23321;BME280;33376;51.306;4.752;2023-05-22T02:44:36;96853.00;;;12.92;100.00
23321;BME280;33376;51.306;4.752;2023-05-22T02:47:01;96867.06;;;12.86;100.00
23321;BME280;33376;51.306;4.752;2023-05-22T02:49:27;96899.75;;;12.80;100.00
23321;BME280;33376;51.306;4.752;2023-05-22T02:51:52;96925.09;;;12.76;100.00
23321;BME280;33376;51.306;4.752;2023-05-22T02:54:17;96951.22;;;12.73;100.00
23321;BME280;33376;51.306;4.752;2023-05-22T02:56:42;96969.56;;;12.68;100.00
23321;BME280;33376;51.306;4.752;2023-05-22T02:59:08;96996.13;;;12.68;100.00
23321;BME280;33376;51.306;4.752;2023-05-22T03:01:33;97014.88;;;12.60;100.00
23321;BME280;33376;51.306;4.752;2023-05-22T03:04:00;97036.56;;;12.63;100.00
23321;BME280;33376;51.306;4.752;2023-05-22T03:06:25;97060.22;;;12.58;100.00
23321;BME280;33376;51.306;4.752;2023-05-22T03:08:50;97068.84;;;12.60;100.00
23321;BME280;33376;51.306;4.752;2023-05-22T03:11:17;97082.66;;;12.56;100.00
23321;BME280;33376;51.306;4.752;2023-05-22T03:13:42;97106.13;;;12.52;100.00
23321;BME280;33376;51.306;4.752;2023-05-22T03:16:07;97115.94;;;12.52;100.00
23321;BME280;33376;51.306;4.752;2023-05-22T03:18:33;97124.75;;;12.52;100.00
23321;BME280;33376;51.306;4.752;2023-05-22T03:20:58;97136.28;;;12.45;100.00
23321;BME280;33376;51.306;4.752;2023-05-22T03:23:24;97145.91;;;12.46;100.00
23321;BME280;33376;51.306;4.752;2023-05-22T03:25:49;97157.91;;;12.42;100.00
23321;BME280;33376;51.306;4.752;2023-05-22T03:28:15;97173.19;;;12.40;100.00
23321;BME280;33376;51.306;4.752;2023-05-22T03:30:40;97187.66;;;12.37;100.00
23321;BME280;33376;51.306;4.752;2023-05-22T03:33:05;97116.34;;;12.34;100.00
23321;BME280;33376;51.306;4.752;2023-05-22T03:35:32;97088.31;;;12.32;100.00
23321;BME280;33376;51.306;4.752;2023-05-22T03:37:58;97090.34;;;12.30;100.00
23321;BME280;33376;51.306;4.752;2023-05-22T03:40:24;97096.22;;;12.25;100.00
23321;BME280;33376;51.306;4.752;2023-05-22T03:42:49;97302.03;;;12.21;100.00
23321;BME280;33376;51.306;4.752;2023-05-22T03:45:16;97317.31;;;12.19;100.00
23321;BME280;33376;51.306;4.752;2023-05-22T03:47:43;97323.47;;;12.20;100.00
23321;BME280;33376;51.306;4.752;2023-05-22T03:50:08;97328.69;;;12.28;100.00
23321;BME280;33376;51.306;4.752;2023-05-22T03:52:34;97332.47;;;12.33;100.00
23321;BME280;33376;51.306;4.752;2023-05-22T03:54:59;97309.13;;;12.43;100.00
23321;BME280;33376;51.306;4.752;2023-05-22T03:57:24;97296.41;;;12.53;100.00
23321;BME280;33376;51.306;4.752;2023-05-22T03:59:50;97279.38;;;12.62;100.00
23321;BME280;33376;51.306;4.752;2023-05-22T04:02:17;97262.44;;;12.78;100.00
23321;BME280;33376;51.306;4.752;2023-05-22T04:04:50;97255.72;;;12.82;100.00
23321;BME280;33376;51.306;4.752;2023-05-22T04:07:15;97257.44;;;12.89;100.00
23321;BME280;33376;51.306;4.752;2023-05-22T04:09:42;97265.13;;;12.99;100.00
23321;BME280;33376;51.306;4.752;2023-05-22T04:12:07;97254.16;;;13.02;100.00
23321;BME280;33376;51.306;4.752;2023-05-22T04:14:33;97226.00;;;13.07;100.00
23321;BME280;33376;51.306;4.752;2023-05-22T04:16:58;97239.22;;;13.01;100.00
23321;BME280;33376;51.306;4.752;2023-05-22T04:19:23;97175.38;;;13.15;100.00
23321;BME280;33376;51.306;4.752;2023-05-22T04:21:51;97175.44;;;13.22;100.00
23321;BME280;33376;51.306;4.752;2023-05-22T04:24:17;97185.03;;;13.23;100.00
23321;BME280;33376;51.306;4.752;2023-05-22T04:26:42;97202.09;;;13.29;100.00
23321;BME280;33376;51.306;4.752;2023-05-22T04:29:08;97200.28;;;13.29;100.00
23321;BME280;33376;51.306;4.752;2023-05-22T04:31:37;97214.44;;;13.36;100.00
23321;BME280;33376;51.306;4.752;2023-05-22T04:34:02;97220.28;;;13.46;100.00
23321;BME280;33376;51.306;4.752;2023-05-22T04:36:28;97238.78;;;13.54;100.00
23321;BME280;33376;51.306;4.752;2023-05-22T04:38:55;97250.69;;;13.58;100.00
23321;BME280;33376;51.306;4.752;2023-05-22T04:41:20;97274.06;;;13.63;100.00
23321;BME280;33376;51.306;4.752;2023-05-22T04:43:51;97286.00;;;13.67;100.00
23321;BME280;33376;51.306;4.752;2023-05-22T04:46:17;97302.50;;;13.77;100.00
23321;BME280;33376;51.306;4.752;2023-05-22T04:48:42;97331.66;;;13.85;100.00
23321;BME280;33376;51.306;4.752;2023-05-22T04:51:07;97366.09;;;13.86;100.00
23321;BME280;33376;51.306;4.752;2023-05-22T04:53:33;97375.59;;;13.95;100.00
23321;BME280;33376;51.306;4.752;2023-05-22T04:55:59;97400.19;;;13.97;100.00
23321;BME280;33376;51.306;4.752;2023-05-22T04:58:25;97429.31;;;13.99;100.00
23321;BME280;33376;51.306;4.752;2023-05-22T05:00:53;97445.09;;;14.00;100.00
23321;BME280;33376;51.306;4.752;2023-05-22T05:03:19;97458.69;;;14.05;100.00
23321;BME280;33376;51.306;4.752;2023-05-22T05:05:44;97467.16;;;14.15;100.00
23321;BME280;33376;51.306;4.752;2023-05-22T05:08:09;97500.19;;;14.00;100.00
23321;BME280;33376;51.306;4.752;2023-05-22T05:10:35;97507.59;;;14.19;100.00
23321;BME280;33376;51.306;4.752;2023-05-22T05:13:00;97491.84;;;14.38;100.00
23321;BME280;33376;51.306;4.752;2023-05-22T05:15:26;97532.47;;;14.40;100.00
23321;BME280;33376;51.306;4.752;2023-05-22T05:17:52;97567.41;;;14.45;100.00
23321;BME280;33376;51.306;4.752;2023-05-22T05:20:17;97613.81;;;14.36;100.00
23321;BME280;33376;51.306;4.752;2023-05-22T05:22:42;97632.16;;;14.46;100.00
23321;BME280;33376;51.306;4.752;2023-05-22T05:25:10;97653.78;;;14.51;100.00
23321;BME280;33376;51.306;4.752;2023-05-22T05:27:35;97695.41;;;14.52;100.00
23321;BME280;33376;51.306;4.752;2023-05-22T05:30:00;97707.63;;;14.61;100.00
23321;BME280;33376;51.306;4.752;2023-05-22T05:32:26;97737.69;;;14.69;100.00
23321;BME280;33376;51.306;4.752;2023-05-22T05:34:51;97754.03;;;14.81;100.00
23321;BME280;33376;51.306;4.752;2023-05-22T05:37:16;97791.47;;;14.88;100.00
23321;BME280;33376;51.306;4.752;2023-05-22T05:39:42;97810.41;;;14.93;100.00
23321;BME280;33376;51.306;4.752;2023-05-22T05:42:07;97854.13;;;14.92;100.00
23321;BME280;33376;51.306;4.752;2023-05-22T05:44:32;97882.19;;;15.02;100.00
23321;BME280;33376;51.306;4.752;2023-05-22T05:46:57;97921.75;;;15.13;100.00
23321;BME280;33376;51.306;4.752;2023-05-22T05:49:23;97953.50;;;15.23;100.00
23321;BME280;33376;51.306;4.752;2023-05-22T05:51:48;97993.63;;;15.29;100.00
23321;BME280;33376;51.306;4.752;2023-05-22T05:54:13;98041.97;;;15.34;100.00
23321;BME280;33376;51.306;4.752;2023-05-22T05:56:39;98080.94;;;15.21;100.00
23321;BME280;33376;51.306;4.752;2023-05-22T05:59:04;98101.72;;;15.33;100.00
23321;BME280;33376;51.306;4.752;2023-05-22T06:01:32;98130.13;;;15.26;100.00
23321;BME280;33376;51.306;4.752;2023-05-22T06:03:57;98136.72;;;15.38;100.00
23321;BME280;33376;51.306;4.752;2023-05-22T06:06:27;98164.41;;;15.37;100.00
23321;BME280;33376;51.306;4.752;2023-05-22T06:08:53;98185.09;;;15.35;100.00
23321;BME280;33376;51.306;4.752;2023-05-22T06:11:19;98213.16;;;15.39;100.00
23321;BME280;33376;51.306;4.752;2023-05-22T06:13:45;98238.09;;;15.24;100.00
23321;BME280;33376;51.306;4.752;2023-05-22T06:16:11;98242.53;;;15.39;100.00
23321;BME280;33376;51.306;4.752;2023-05-22T06:18:36;98252.63;;;15.52;100.00
23321;BME280;33376;51.306;4.752;2023-05-22T06:21:01;98269.13;;;15.55;100.00
23321;BME280;33376;51.306;4.752;2023-05-22T06:23:27;98273.31;;;15.72;100.00
23321;BME280;33376;51.306;4.752;2023-05-22T06:25:52;98301.50;;;15.75;100.00
23321;BME280;33376;51.306;4.752;2023-05-22T06:28:18;98324.75;;;15.74;100.00
23321;BME280;33376;51.306;4.752;2023-05-22T06:30:43;98350.22;;;15.85;100.00
23321;BME280;33376;51.306;4.752;2023-05-22T06:33:08;98340.53;;;15.84;100.00
23321;BME280;33376;51.306;4.752;2023-05-22T06:35:34;98364.19;;;15.95;100.00
23321;BME280;33376;51.306;4.752;2023-05-22T06:37:59;98381.16;;;16.02;100.00
23321;BME280;33376;51.306;4.752;2023-05-22T06:40:24;98421.09;;;16.03;100.00
23321;BME280;33376;51.306;4.752;2023-05-22T06:42:50;98445.34;;;15.94;100.00
23321;BME280;33376;51.306;4.752;2023-05-22T06:45:16;98449.47;;;16.04;100.00
23321;BME280;33376;51.306;4.752;2023-05-22T06:47:43;98462.16;;;16.02;100.00
23321;BME280;33376;51.306;4.752;2023-05-22T06:50:09;98465.81;;;16.09;100.00
23321;BME280;33376;51.306;4.752;2023-05-22T06:52:35;98485.16;;;16.11;100.00
23321;BME280;33376;51.306;4.752;2023-05-22T06:55:00;98498.53;;;16.11;100.00
23321;BME280;33376;51.306;4.752;2023-05-22T06:57:32;98506.84;;;16.17;100.00
23321;BME280;33376;51.306;4.752;2023-05-22T06:59:57;98501.94;;;16.28;100.00
23321;BME280;33376;51.306;4.752;2023-05-22T07:02:23;98525.34;;;16.26;100.00
23321;BME280;33376;51.306;4.752;2023-05-22T07:04:48;98544.72;;;16.28;100.00
23321;BME280;33376;51.306;4.752;2023-05-22T07:07:13;98583.72;;;15.76;100.00
23321;BME280;33376;51.306;4.752;2023-05-22T07:09:39;98584.00;;;15.89;100.00
23321;BME280;33376;51.306;4.752;2023-05-22T07:12:04;98589.72;;;15.78;100.00
23321;BME280;33376;51.306;4.752;2023-05-22T07:14:30;98582.25;;;16.12;100.00
23321;BME280;33376;51.306;4.752;2023-05-22T07:16:55;98597.63;;;16.10;100.00
23321;BME280;33376;51.306;4.752;2023-05-22T07:19:20;98589.13;;;16.37;100.00
23321;BME280;33376;51.306;4.752;2023-05-22T07:21:46;98609.41;;;16.32;100.00
23321;BME280;33376;51.306;4.752;2023-05-22T07:24:11;98614.88;;;16.38;100.00
23321;BME280;33376;51.306;4.752;2023-05-22T07:26:36;98631.28;;;16.35;100.00
23321;BME280;33376;51.306;4.752;2023-05-22T07:29:02;98646.34;;;16.28;100.00
23321;BME280;33376;51.306;4.752;2023-05-22T07:31:27;98661.03;;;16.40;100.00
23321;BME280;33376;51.306;4.752;2023-05-22T07:33:53;98672.22;;;16.36;100.00
23321;BME280;33376;51.306;4.752;2023-05-22T07:36:18;98678.91;;;16.48;100.00
23321;BME280;33376;51.306;4.752;2023-05-22T07:38:44;98701.94;;;16.41;100.00
23321;BME280;33376;51.306;4.752;2023-05-22T07:41:10;98716.03;;;16.35;100.00
23321;BME280;33376;51.306;4.752;2023-05-22T07:43:35;98701.25;;;16.55;100.00
23321;BME280;33376;51.306;4.752;2023-05-22T07:46:01;98696.19;;;16.68;100.00
23321;BME280;33376;51.306;4.752;2023-05-22T07:48:26;98705.78;;;16.93;100.00
23321;BME280;33376;51.306;4.752;2023-05-22T07:50:51;98722.88;;;16.84;100.00
23321;BME280;33376;51.306;4.752;2023-05-22T07:53:16;98729.13;;;17.07;100.00
23321;BME280;33376;51.306;4.752;2023-05-22T07:55:42;98774.78;;;16.75;100.00
23321;BME280;33376;51.306;4.752;2023-05-22T07:58:07;98782.31;;;16.71;100.00
23321;BME280;33376;51.306;4.752;2023-05-22T08:00:34;98778.31;;;16.75;100.00
23321;BME280;33376;51.306;4.752;2023-05-22T08:03:00;98812.47;;;16.41;100.00
23321;BME280;33376;51.306;4.752;2023-05-22T08:05:25;98798.09;;;16.50;100.00
23321;BME280;33376;51.306;4.752;2023-05-22T08:07:50;98802.44;;;16.51;100.00
23321;BME280;33376;51.306;4.752;2023-05-22T08:10:16;98807.28;;;16.56;100.00
23321;BME280;33376;51.306;4.752;2023-05-22T08:12:41;98809.31;;;16.46;100.00
23321;BME280;33376;51.306;4.752;2023-05-22T08:15:07;98813.63;;;16.55;100.00
23321;BME280;33376;51.306;4.752;2023-05-22T08:17:32;98809.78;;;16.57;100.00
23321;BME280;33376;51.306;4.752;2023-05-22T08:19:58;98818.97;;;16.55;100.00
23321;BME280;33376;51.306;4.752;2023-05-22T08:22:23;98805.34;;;16.80;100.00
23321;BME280;33376;51.306;4.752;2023-05-22T08:24:48;98809.75;;;16.73;100.00
23321;BME280;33376;51.306;4.752;2023-05-22T08:27:13;98821.59;;;16.79;100.00
23321;BME280;33376;51.306;4.752;2023-05-22T08:29:39;98830.47;;;16.79;100.00
23321;BME280;33376;51.306;4.752;2023-05-22T08:32:04;98838.44;;;16.95;100.00
23321;BME280;33376;51.306;4.752;2023-05-22T08:34:30;98877.66;;;16.24;100.00
23321;BME280;33376;51.306;4.752;2023-05-22T08:36:56;98875.31;;;16.37;100.00
23321;BME280;33376;51.306;4.752;2023-05-22T08:39:23;98871.31;;;16.57;100.00
23321;BME280;33376;51.306;4.752;2023-05-22T08:41:48;98876.16;;;16.38;100.00
23321;BME280;33376;51.306;4.752;2023-05-22T08:44:13;98854.41;;;16.73;100.00
23321;BME280;33376;51.306;4.752;2023-05-22T08:46:39;98867.25;;;16.77;100.00
23321;BME280;33376;51.306;4.752;2023-05-22T08:49:07;98859.84;;;16.95;100.00
23321;BME280;33376;51.306;4.752;2023-05-22T08:51:33;98883.63;;;16.90;100.00
23321;BME280;33376;51.306;4.752;2023-05-22T08:54:01;98900.38;;;16.76;100.00
23321;BME280;33376;51.306;4.752;2023-05-22T08:56:29;98903.41;;;16.73;100.00
23321;BME280;33376;51.306;4.752;2023-05-22T08:58:54;98899.84;;;16.89;100.00
23321;BME280;33376;51.306;4.752;2023-05-22T09:01:21;98897.66;;;17.08;100.00
23321;BME280;33376;51.306;4.752;2023-05-22T09:03:47;98915.69;;;17.14;100.00
23321;BME280;33376;51.306;4.752;2023-05-22T09:06:15;98910.34;;;17.61;100.00
23321;BME280;33376;51.306;4.752;2023-05-22T09:08:40;98926.31;;;17.85;100.00
23321;BME280;33376;51.306;4.752;2023-05-22T09:11:06;98955.13;;;17.83;100.00
23321;BME280;33376;51.306;4.752;2023-05-22T09:13:32;98995.16;;;17.22;100.00
23321;BME280;33376;51.306;4.752;2023-05-22T09:15:57;98990.97;;;17.52;100.00
23321;BME280;33376;51.306;4.752;2023-05-22T09:18:25;99018.94;;;17.17;100.00
23321;BME280;33376;51.306;4.752;2023-05-22T09:20:51;99006.88;;;17.29;100.00
23321;BME280;33376;51.306;4.752;2023-05-22T09:23:16;99000.94;;;17.66;100.00
23321;BME280;33376;51.306;4.752;2023-05-22T09:25:43;98996.75;;;18.02;100.00
23321;BME280;33376;51.306;4.752;2023-05-22T09:28:09;99029.16;;;17.92;100.00
23321;BME280;33376;51.306;4.752;2023-05-22T09:30:35;99055.19;;;18.14;100.00
23321;BME280;33376;51.306;4.752;2023-05-22T09:33:00;99102.53;;;18.46;100.00
23321;BME280;33376;51.306;4.752;2023-05-22T09:35:25;99383.84;;;18.58;100.00
23321;BME280;33376;51.306;4.752;2023-05-22T09:37:51;99830.00;;;18.62;100.00
23321;BME280;33376;51.306;4.752;2023-05-22T09:40:17;99875.41;;;18.47;100.00
23321;BME280;33376;51.306;4.752;2023-05-22T09:42:42;99888.50;;;18.50;100.00
23321;BME280;33376;51.306;4.752;2023-05-22T09:45:09;99857.00;;;18.94;100.00
23321;BME280;33376;51.306;4.752;2023-05-22T09:47:35;99374.91;;;19.37;100.00
23321;BME280;33376;51.306;4.752;2023-05-22T09:50:03;99229.28;;;19.33;100.00
23321;BME280;33376;51.306;4.752;2023-05-22T09:52:32;99221.00;;;20.17;100.00
23321;BME280;33376;51.306;4.752;2023-05-22T09:54:57;99293.56;;;20.91;100.00
23321;BME280;33376;51.306;4.752;2023-05-22T09:57:26;99501.50;;;22.05;100.00
23321;BME280;33376;51.306;4.752;2023-05-22T09:59:53;99936.78;;;22.15;100.00
23321;BME280;33376;51.306;4.752;2023-05-22T10:02:22;100236.56;;;22.92;100.00
23321;BME280;33376;51.306;4.752;2023-05-22T10:04:48;100479.84;;;23.79;100.00
23321;BME280;33376;51.306;4.752;2023-05-22T10:07:27;100663.34;;;23.45;100.00
23321;BME280;33376;51.306;4.752;2023-05-22T10:10:03;100875.91;;;24.05;100.00
23321;BME280;33376;51.306;4.752;2023-05-22T10:12:29;101037.91;;;24.83;100.00
23321;BME280;33376;51.306;4.752;2023-05-22T10:14:57;101203.47;;;25.47;100.00
23321;BME280;33376;51.306;4.752;2023-05-22T10:17:22;101361.72;;;25.81;100.00
23321;BME280;33376;51.306;4.752;2023-05-22T10:19:48;101470.63;;;26.52;100.00
23321;BME280;33376;51.306;4.752;2023-05-22T10:22:14;101499.28;;;25.82;100.00
23321;BME280;33376;51.306;4.752;2023-05-22T10:24:45;101502.69;;;25.92;100.00
23321;BME280;33376;51.306;4.752;2023-05-22T10:27:11;101540.34;;;25.12;100.00
23321;BME280;33376;51.306;4.752;2023-05-22T10:29:37;101563.34;;;25.26;100.00
23321;BME280;33376;51.306;4.752;2023-05-22T10:32:16;101557.44;;;25.05;100.00
23321;BME280;33376;51.306;4.752;2023-05-22T10:34:56;101553.75;;;25.14;100.00
23321;BME280;33376;51.306;4.752;2023-05-22T10:37:46;101496.88;;;25.71;100.00
23321;BME280;33376;51.306;4.752;2023-05-22T10:40:13;101500.69;;;26.03;100.00
23321;BME280;33376;51.306;4.752;2023-05-22T10:42:39;101531.41;;;25.95;100.00
23321;BME280;33376;51.306;4.752;2023-05-22T10:45:05;101495.78;;;26.22;100.00
23321;BME280;33376;51.306;4.752;2023-05-22T10:47:34;101476.94;;;26.53;100.00
23321;BME280;33376;51.306;4.752;2023-05-22T10:50:09;101440.69;;;26.76;100.00
23321;BME280;33376;51.306;4.752;2023-05-22T10:52:38;101425.50;;;26.98;100.00
23321;BME280;33376;51.306;4.752;2023-05-22T10:55:04;101431.34;;;26.79;100.00
23321;BME280;33376;51.306;4.752;2023-05-22T10:57:33;101474.06;;;26.70;100.00
23321;BME280;33376;51.306;4.752;2023-05-22T11:00:31;101509.22;;;26.32;100.00
23321;BME280;33376;51.306;4.752;2023-05-22T11:02:50;101490.63;;;25.95;100.00
23321;BME280;33376;51.306;4.752;2023-05-22T11:08:07;101454.66;;;26.65;100.00
23321;BME280;33376;51.306;4.752;2023-05-22T11:10:51;101417.97;;;27.08;100.00
23321;BME280;33376;51.306;4.752;2023-05-22T11:13:17;101480.69;;;26.52;100.00
23321;BME280;33376;51.306;4.752;2023-05-22T11:15:45;101494.88;;;25.81;100.00
23321;BME280;33376;51.306;4.752;2023-05-22T11:18:12;101498.22;;;25.75;100.00
23321;BME280;33376;51.306;4.752;2023-05-22T11:20:38;101449.03;;;26.59;100.00
23321;BME280;33376;51.306;4.752;2023-05-22T11:23:04;101498.25;;;25.91;100.00
23321;BME280;33376;51.306;4.752;2023-05-22T11:25:31;101492.59;;;26.67;100.00
23321;BME280;33376;51.306;4.752;2023-05-22T11:27:57;101461.66;;;26.44;100.00
23321;BME280;33376;51.306;4.752;2023-05-22T11:30:25;101459.59;;;26.06;100.00
23321;BME280;33376;51.306;4.752;2023-05-22T11:32:51;101476.41;;;26.57;100.00
23321;BME280;33376;51.306;4.752;2023-05-22T11:35:17;101455.84;;;26.79;100.00
23321;BME280;33376;51.306;4.752;2023-05-22T11:37:43;101511.63;;;26.67;100.00
23321;BME280;33376;51.306;4.752;2023-05-22T11:40:08;101483.06;;;27.25;100.00
23321;BME280;33376;51.306;4.752;2023-05-22T11:42:35;101425.88;;;26.95;100.00
23321;BME280;33376;51.306;4.752;2023-05-22T11:45:00;101456.97;;;27.00;100.00
23321;BME280;33376;51.306;4.752;2023-05-22T11:47:26;101477.59;;;26.63;100.00
23321;BME280;33376;51.306;4.752;2023-05-22T11:49:53;101398.47;;;26.96;100.00
23321;BME280;33376;51.306;4.752;2023-05-22T11:52:18;101398.16;;;27.30;100.00
23321;BME280;33376;51.306;4.752;2023-05-22T11:54:44;101389.47;;;27.35;100.00
23321;BME280;33376;51.306;4.752;2023-05-22T11:57:09;101386.25;;;27.31;100.00
23321;BME280;33376;51.306;4.752;2023-05-22T11:59:35;101424.63;;;27.05;100.00
23321;BME280;33376;51.306;4.752;2023-05-22T12:02:00;101402.91;;;27.36;100.00
23321;BME280;33376;51.306;4.752;2023-05-22T12:04:25;101343.53;;;27.99;100.00
23321;BME280;33376;51.306;4.752;2023-05-22T12:06:51;101325.06;;;28.24;100.00
23321;BME280;33376;51.306;4.752;2023-05-22T12:09:17;101368.38;;;26.90;100.00
23321;BME280;33376;51.306;4.752;2023-05-22T12:11:46;101408.25;;;26.35;100.00
23321;BME280;33376;51.306;4.752;2023-05-22T12:14:11;101425.06;;;27.33;100.00
23321;BME280;33376;51.306;4.752;2023-05-22T12:16:37;101399.84;;;26.84;100.00
23321;BME280;33376;51.306;4.752;2023-05-22T12:19:06;101421.44;;;26.86;100.00
23321;BME280;33376;51.306;4.752;2023-05-22T12:21:31;101400.28;;;27.04;100.00
23321;BME280;33376;51.306;4.752;2023-05-22T12:23:57;101478.06;;;26.90;100.00
23321;BME280;33376;51.306;4.752;2023-05-22T12:26:22;101444.97;;;26.79;100.00
23321;BME280;33376;51.306;4.752;2023-05-22T12:28:51;101480.69;;;26.60;100.00
23321;BME280;33376;51.306;4.752;2023-05-22T12:31:20;101506.50;;;26.24;100.00
23321;BME280;33376;51.306;4.752;2023-05-22T12:33:46;101530.88;;;25.91;100.00
23321;BME280;33376;51.306;4.752;2023-05-22T12:36:11;101529.13;;;26.24;100.00
23321;BME280;33376;51.306;4.752;2023-05-22T12:38:36;101519.78;;;26.43;100.00
23321;BME280;33376;51.306;4.752;2023-05-22T12:41:03;101507.97;;;27.14;100.00
23321;BME280;33376;51.306;4.752;2023-05-22T12:43:28;101518.06;;;26.18;100.00
23321;BME280;33376;51.306;4.752;2023-05-22T12:45:53;101540.34;;;26.53;100.00
23321;BME280;33376;51.306;4.752;2023-05-22T12:48:19;101528.81;;;26.83;100.00
23321;BME280;33376;51.306;4.752;2023-05-22T12:50:45;101481.34;;;26.46;100.00
23321;BME280;33376;51.306;4.752;2023-05-22T12:53:13;101516.34;;;26.57;100.00
23321;BME280;33376;51.306;4.752;2023-05-22T12:55:38;101492.88;;;27.04;100.00
23321;BME280;33376;51.306;4.752;2023-05-22T12:58:04;101487.94;;;27.07;100.00
23321;BME280;33376;51.306;4.752;2023-05-22T13:00:29;101526.38;;;25.66;100.00
23321;BME280;33376;51.306;4.752;2023-05-22T13:02:55;101617.00;;;25.32;100.00
23321;BME280;33376;51.306;4.752;2023-05-22T13:05:20;101608.72;;;26.50;100.00
23321;BME280;33376;51.306;4.752;2023-05-22T13:07:45;101560.09;;;26.95;100.00